sensor_id;sensor_type;location;lat;lon;timestamp;temperature;humidity
46608;DHT22;32330;51.936;7.184;2023-04-25T03:48:54;6.70;99.90
46608;DHT22;32330;51.936;7.184;2023-04-25T03:51:27;6.70;99.90
46608;DHT22;32330;51.936;7.184;2023-04-25T03:53:54;6.70;99.90
46608;DHT22;32330;51.936;7.184;2023-04-25T03:56:56;6.80;99.90
46608;DHT22;32330;51.936;7.184;2023-04-25T04:02:03;6.70;99.90
46608;DHT22;32330;51.936;7.184;2023-04-25T04:04:33;6.70;99.90
46608;DHT22;32330;51.936;7.184;2023-04-25T04:07:01;6.60;99.90
46608;DHT22;32330;51.936;7.184;2023-04-25T04:09:31;6.60;99.90
46608;DHT22;32330;51.936;7.184;2023-04-25T04:12:00;6.50;99.90
46608;DHT22;32330;51.936;7.184;2023-04-25T04:14:29;6.50;99.90
46608;DHT22;32330;51.936;7.184;2023-04-25T04:16:56;6.60;99.90
46608;DHT22;32330;51.936;7.184;2023-04-25T04:19:23;6.50;99.90
46608;DHT22;32330;51.936;7.184;2023-04-25T04:22:13;6.60;99.90
46608;DHT22;32330;51.936;7.184;2023-04-25T04:24:41;6.50;99.90
46608;DHT22;32330;51.936;7.184;2023-04-25T04:27:10;6.50;99.90
46608;DHT22;32330;51.936;7.184;2023-04-25T04:29:47;6.50;99.90
46608;DHT22;32330;51.936;7.184;2023-04-25T04:32:34;6.50;99.90
46608;DHT22;32330;51.936;7.184;2023-04-25T04:35:05;6.40;99.90
46608;DHT22;32330;51.936;7.184;2023-04-25T04:37:33;6.50;99.90
46608;DHT22;32330;51.936;7.184;2023-04-25T04:40:01;6.40;99.90
46608;DHT22;32330;51.936;7.184;2023-04-25T04:42:50;6.50;99.90
46608;DHT22;32330;51.936;7.184;2023-04-25T04:45:28;6.50;99.90
46608;DHT22;32330;51.936;7.184;2023-04-25T04:48:13;6.50;99.90
46608;DHT22;32330;51.936;7.184;2023-04-25T04:51:00;6.50;99.90
46608;DHT22;32330;51.936;7.184;2023-04-25T04:53:49;6.50;99.90
46608;DHT22;32330;51.936;7.184;2023-04-25T04:56:22;6.50;99.90
46608;DHT22;32330;51.936;7.184;2023-04-25T04:59:11;6.50;99.90
46608;DHT22;32330;51.936;7.184;2023-04-25T05:02:16;6.50;99.90
46608;DHT22;32330;51.936;7.184;2023-04-25T05:05:00;6.40;99.90
46608;DHT22;32330;51.936;7.184;2023-04-25T05:07:39;6.50;99.90
46608;DHT22;32330;51.936;7.184;2023-04-25T05:10:27;6.50;99.90
46608;DHT22;32330;51.936;7.184;2023-04-25T05:13:03;6.50;99.90
46608;DHT22;32330;51.936;7.184;2023-04-25T05:15:30;6.50;99.90
46608;DHT22;32330;51.936;7.184;2023-04-25T05:18:19;6.50;99.90
46608;DHT22;32330;51.936;7.184;2023-04-25T05:21:05;6.50;99.90
46608;DHT22;32330;51.936;7.184;2023-04-25T05:23:48;6.50;99.90
46608;DHT22;32330;51.936;7.184;2023-04-25T05:26:46;6.50;99.90
46608;DHT22;32330;51.936;7.184;2023-04-25T05:29:24;6.50;99.90
46608;DHT22;32330;51.936;7.184;2023-04-25T05:32:01;6.60;99.90
46608;DHT22;32330;51.936;7.184;2023-04-25T05:34:29;6.50;99.90
46608;DHT22;32330;51.936;7.184;2023-04-25T05:37:00;6.60;99.90
46608;DHT22;32330;51.936;7.184;2023-04-25T05:39:27;6.60;99.90
46608;DHT22;32330;51.936;7.184;2023-04-25T05:42:25;6.60;99.90
46608;DHT22;32330;51.936;7.184;2023-04-25T05:45:03;6.60;99.90
46608;DHT22;32330;51.936;7.184;2023-04-25T05:47:56;6.70;99.90
46608;DHT22;32330;51.936;7.184;2023-04-25T05:50:37;6.70;99.90
46608;DHT22;32330;51.936;7.184;2023-04-25T05:53:34;6.80;99.90
46608;DHT22;32330;51.936;7.184;2023-04-25T05:56:02;6.90;99.90
46608;DHT22;32330;51.936;7.184;2023-04-25T05:58:30;6.90;99.90
46608;DHT22;32330;51.936;7.184;2023-04-25T06:00:58;7.00;99.90
46608;DHT22;32330;51.936;7.184;2023-04-25T06:03:26;7.10;99.90
46608;DHT22;32330;51.936;7.184;2023-04-25T06:05:53;7.00;99.90
46608;DHT22;32330;51.936;7.184;2023-04-25T06:08:20;7.10;99.90
46608;DHT22;32330;51.936;7.184;2023-04-25T06:10:46;7.10;99.90
46608;DHT22;32330;51.936;7.184;2023-04-25T06:13:14;7.00;99.90
46608;DHT22;32330;51.936;7.184;2023-04-25T06:15:43;7.10;99.90
46608;DHT22;32330;51.936;7.184;2023-04-25T06:18:11;7.10;99.90
46608;DHT22;32330;51.936;7.184;2023-04-25T06:20:38;7.20;99.90
46608;DHT22;32330;51.936;7.184;2023-04-25T06:23:05;7.20;99.90
46608;DHT22;32330;51.936;7.184;2023-04-25T06:25:41;7.20;99.90
46608;DHT22;32330;51.936;7.184;2023-04-25T06:28:08;7.30;99.90
46608;DHT22;32330;51.936;7.184;2023-04-25T06:30:35;7.30;99.90
46608;DHT22;32330;51.936;7.184;2023-04-25T06:33:08;7.50;99.90
46608;DHT22;32330;51.936;7.184;2023-04-25T06:35:35;7.40;99.90
46608;DHT22;32330;51.936;7.184;2023-04-25T06:38:04;7.40;99.90
46608;DHT22;32330;51.936;7.184;2023-04-25T06:40:31;7.50;99.90
46608;DHT22;32330;51.936;7.184;2023-04-25T06:42:59;7.40;99.90
46608;DHT22;32330;51.936;7.184;2023-04-25T06:45:38;7.50;99.90
46608;DHT22;32330;51.936;7.184;2023-04-25T06:48:08;7.50;99.90
46608;DHT22;32330;51.936;7.184;2023-04-25T06:50:35;7.50;99.90
46608;DHT22;32330;51.936;7.184;2023-04-25T06:53:02;7.80;99.90
46608;DHT22;32330;51.936;7.184;2023-04-25T06:55:30;7.80;99.90
46608;DHT22;32330;51.936;7.184;2023-04-25T06:58:07;7.70;99.90
46608;DHT22;32330;51.936;7.184;2023-04-25T07:00:53;7.80;99.90
46608;DHT22;32330;51.936;7.184;2023-04-25T07:03:24;7.80;99.90
46608;DHT22;32330;51.936;7.184;2023-04-25T07:05:55;7.90;99.90
46608;DHT22;32330;51.936;7.184;2023-04-25T07:08:23;8.00;99.90
46608;DHT22;32330;51.936;7.184;2023-04-25T07:10:50;8.00;98.80
46608;DHT22;32330;51.936;7.184;2023-04-25T07:13:17;8.00;96.40
46608;DHT22;32330;51.936;7.184;2023-04-25T07:15:44;8.20;96.30
46608;DHT22;32330;51.936;7.184;2023-04-25T07:18:13;8.20;95.60
46608;DHT22;32330;51.936;7.184;2023-04-25T07:20:42;8.30;94.60
46608;DHT22;32330;51.936;7.184;2023-04-25T07:23:09;8.30;87.00
46608;DHT22;32330;51.936;7.184;2023-04-25T07:25:36;8.50;87.50
46608;DHT22;32330;51.936;7.184;2023-04-25T07:28:04;8.50;84.30
46608;DHT22;32330;51.936;7.184;2023-04-25T07:30:31;8.60;78.40
46608;DHT22;32330;51.936;7.184;2023-04-25T07:33:03;8.40;1.00
46608;DHT22;32330;51.936;7.184;2023-04-25T07:35:30;8.40;1.00
46608;DHT22;32330;51.936;7.184;2023-04-25T07:37:58;8.40;99.90
46608;DHT22;32330;51.936;7.184;2023-04-25T07:40:25;8.50;1.00
46608;DHT22;32330;51.936;7.184;2023-04-25T07:42:57;8.70;1.00
46608;DHT22;32330;51.936;7.184;2023-04-25T07:45:34;8.40;99.90
46608;DHT22;32330;51.936;7.184;2023-04-25T07:48:02;8.50;1.00
46608;DHT22;32330;51.936;7.184;2023-04-25T07:50:32;8.80;1.00
46608;DHT22;32330;51.936;7.184;2023-04-25T07:53:00;9.10;1.00
46608;DHT22;32330;51.936;7.184;2023-04-25T07:55:35;9.10;1.00
46608;DHT22;32330;51.936;7.184;2023-04-25T07:58:14;9.00;99.90
46608;DHT22;32330;51.936;7.184;2023-04-25T08:00:43;8.90;1.00
46608;DHT22;32330;51.936;7.184;2023-04-25T08:03:24;9.00;1.00
46608;DHT22;32330;51.936;7.184;2023-04-25T08:05:53;9.00;1.00
46608;DHT22;32330;51.936;7.184;2023-04-25T08:08:21;9.10;99.90
46608;DHT22;32330;51.936;7.184;2023-04-25T08:10:49;9.20;99.90
46608;DHT22;32330;51.936;7.184;2023-04-25T08:13:16;9.20;1.00
46608;DHT22;32330;51.936;7.184;2023-04-25T08:15:44;9.20;1.00
46608;DHT22;32330;51.936;7.184;2023-04-25T08:18:11;9.10;1.00
46608;DHT22;32330;51.936;7.184;2023-04-25T08:20:42;9.10;99.90
46608;DHT22;32330;51.936;7.184;2023-04-25T08:23:23;9.40;99.90
46608;DHT22;32330;51.936;7.184;2023-04-25T09:54:09;10.50;97.40
46608;DHT22;32330;51.936;7.184;2023-04-25T10:40:10;11.60;99.90
46608;DHT22;32330;51.936;7.184;2023-04-25T10:42:39;11.90;98.70
46608;DHT22;32330;51.936;7.184;2023-04-25T10:45:11;12.00;98.10
46608;DHT22;32330;51.936;7.184;2023-04-25T10:47:43;12.00;96.90
46608;DHT22;32330;51.936;7.184;2023-04-25T10:50:11;11.90;96.10
46608;DHT22;32330;51.936;7.184;2023-04-25T10:52:41;11.80;96.00
46608;DHT22;32330;51.936;7.184;2023-04-25T10:55:09;12.20;96.90
46608;DHT22;32330;51.936;7.184;2023-04-25T10:57:38;12.30;96.30
46608;DHT22;32330;51.936;7.184;2023-04-25T11:00:09;12.30;97.20
46608;DHT22;32330;51.936;7.184;2023-04-25T11:02:40;13.00;95.70
46608;DHT22;32330;51.936;7.184;2023-04-25T11:05:09;13.40;95.60
46608;DHT22;32330;51.936;7.184;2023-04-25T11:07:45;13.20;95.60
46608;DHT22;32330;51.936;7.184;2023-04-25T11:10:14;13.30;95.10
46608;DHT22;32330;51.936;7.184;2023-04-25T11:12:41;13.10;93.60
46608;DHT22;32330;51.936;7.184;2023-04-25T11:15:09;13.40;93.30
46608;DHT22;32330;51.936;7.184;2023-04-25T11:17:36;13.10;93.80
46608;DHT22;32330;51.936;7.184;2023-04-25T11:20:06;12.70;94.00
46608;DHT22;32330;51.936;7.184;2023-04-25T11:22:38;12.00;95.80
46608;DHT22;32330;51.936;7.184;2023-04-25T11:25:07;11.20;99.70
46608;DHT22;32330;51.936;7.184;2023-04-25T11:27:37;10.90;99.90
46608;DHT22;32330;51.936;7.184;2023-04-25T11:30:12;10.20;99.90
46608;DHT22;32330;51.936;7.184;2023-04-25T11:32:40;9.50;99.90
46608;DHT22;32330;51.936;7.184;2023-04-25T11:35:08;9.80;99.90
46608;DHT22;32330;51.936;7.184;2023-04-25T11:37:35;9.50;99.90
46608;DHT22;32330;51.936;7.184;2023-04-25T11:40:03;9.20;99.90
46608;DHT22;32330;51.936;7.184;2023-04-25T11:42:32;9.20;1.00
46608;DHT22;32330;51.936;7.184;2023-04-25T11:45:00;8.80;99.90
46608;DHT22;32330;51.936;7.184;2023-04-25T11:47:29;8.80;1.00
46608;DHT22;32330;51.936;7.184;2023-04-25T11:49:58;8.70;1.00
46608;DHT22;32330;51.936;7.184;2023-04-25T11:52:35;8.80;1.00
46608;DHT22;32330;51.936;7.184;2023-04-25T11:55:04;9.10;99.90
46608;DHT22;32330;51.936;7.184;2023-04-25T11:57:32;9.50;99.90
46608;DHT22;32330;51.936;7.184;2023-04-25T12:00:08;9.80;1.00
46608;DHT22;32330;51.936;7.184;2023-04-25T12:02:41;10.00;1.00
46608;DHT22;32330;51.936;7.184;2023-04-25T12:05:08;10.30;1.00
46608;DHT22;32330;51.936;7.184;2023-04-25T12:07:35;10.40;1.00
46608;DHT22;32330;51.936;7.184;2023-04-25T12:10:07;10.80;1.00
46608;DHT22;32330;51.936;7.184;2023-04-25T12:12:35;10.90;1.00
46608;DHT22;32330;51.936;7.184;2023-04-25T12:15:11;11.10;99.90
46608;DHT22;32330;51.936;7.184;2023-04-25T12:17:38;11.10;99.90
46608;DHT22;32330;51.936;7.184;2023-04-25T12:20:08;11.40;99.90
46608;DHT22;32330;51.936;7.184;2023-04-25T12:22:35;11.80;99.90
46608;DHT22;32330;51.936;7.184;2023-04-25T12:25:03;12.10;99.90
46608;DHT22;32330;51.936;7.184;2023-04-25T12:27:31;12.10;99.90
46608;DHT22;32330;51.936;7.184;2023-04-25T12:29:59;12.20;99.90
46608;DHT22;32330;51.936;7.184;2023-04-25T12:32:28;12.50;99.90
46608;DHT22;32330;51.936;7.184;2023-04-25T12:34:56;12.60;99.90
46608;DHT22;32330;51.936;7.184;2023-04-25T12:37:23;12.20;99.90
46608;DHT22;32330;51.936;7.184;2023-04-25T12:39:50;12.20;99.90
46608;DHT22;32330;51.936;7.184;2023-04-25T12:42:17;12.30;99.90
46608;DHT22;32330;51.936;7.184;2023-04-25T12:44:44;12.70;99.90
46608;DHT22;32330;51.936;7.184;2023-04-25T12:47:12;12.90;99.90
46608;DHT22;32330;51.936;7.184;2023-04-25T12:49:40;12.60;99.90
46608;DHT22;32330;51.936;7.184;2023-04-25T12:52:07;12.50;99.90
46608;DHT22;32330;51.936;7.184;2023-04-25T12:54:34;12.30;99.90
46608;DHT22;32330;51.936;7.184;2023-04-25T12:57:01;12.30;99.90
46608;DHT22;32330;51.936;7.184;2023-04-25T12:59:28;12.00;99.90
46608;DHT22;32330;51.936;7.184;2023-04-25T13:01:55;11.70;99.90
46608;DHT22;32330;51.936;7.184;2023-04-25T13:04:22;12.50;99.90
46608;DHT22;32330;51.936;7.184;2023-04-25T13:06:50;12.90;99.90
46608;DHT22;32330;51.936;7.184;2023-04-25T13:09:17;13.20;99.90
46608;DHT22;32330;51.936;7.184;2023-04-25T13:11:44;13.20;99.90
46608;DHT22;32330;51.936;7.184;2023-04-25T13:14:11;13.60;99.90
46608;DHT22;32330;51.936;7.184;2023-04-25T13:16:38;13.90;99.90
46608;DHT22;32330;51.936;7.184;2023-04-25T13:19:05;13.80;99.90
46608;DHT22;32330;51.936;7.184;2023-04-25T13:21:33;13.90;99.90
46608;DHT22;32330;51.936;7.184;2023-04-25T13:24:02;13.40;1.00
46608;DHT22;32330;51.936;7.184;2023-04-25T13:26:29;13.20;1.00
46608;DHT22;32330;51.936;7.184;2023-04-25T13:33:14;11.80;1.00
46608;DHT22;32330;51.936;7.184;2023-04-25T13:35:42;11.50;1.00
46608;DHT22;32330;51.936;7.184;2023-04-25T13:38:09;11.60;1.00
46608;DHT22;32330;51.936;7.184;2023-04-25T13:40:37;11.30;1.00
46608;DHT22;32330;51.936;7.184;2023-04-25T13:43:04;10.90;1.00
46608;DHT22;32330;51.936;7.184;2023-04-25T13:45:32;10.80;1.00
46608;DHT22;32330;51.936;7.184;2023-04-25T13:47:59;10.80;1.00
46608;DHT22;32330;51.936;7.184;2023-04-25T13:50:26;11.00;1.00
46608;DHT22;32330;51.936;7.184;2023-04-25T13:52:53;11.10;1.00
46608;DHT22;32330;51.936;7.184;2023-04-25T13:55:20;11.70;1.00
46608;DHT22;32330;51.936;7.184;2023-04-25T13:57:48;11.90;1.00
46608;DHT22;32330;51.936;7.184;2023-04-25T14:00:16;12.20;1.00
46608;DHT22;32330;51.936;7.184;2023-04-25T14:05:46;12.90;1.00
46608;DHT22;32330;51.936;7.184;2023-04-25T14:08:13;12.70;1.00
46608;DHT22;32330;51.936;7.184;2023-04-25T14:10:40;12.70;1.00
46608;DHT22;32330;51.936;7.184;2023-04-25T14:13:08;12.80;1.00
46608;DHT22;32330;51.936;7.184;2023-04-25T14:15:36;13.10;1.00
46608;DHT22;32330;51.936;7.184;2023-04-25T14:18:04;13.40;1.00
46608;DHT22;32330;51.936;7.184;2023-04-25T14:20:31;13.40;1.00
46608;DHT22;32330;51.936;7.184;2023-04-25T14:22:58;13.70;1.00
46608;DHT22;32330;51.936;7.184;2023-04-25T14:25:25;13.70;1.00
46608;DHT22;32330;51.936;7.184;2023-04-25T14:27:52;13.80;1.00
46608;DHT22;32330;51.936;7.184;2023-04-25T14:30:21;13.30;1.00
46608;DHT22;32330;51.936;7.184;2023-04-25T14:32:48;12.80;1.00
46608;DHT22;32330;51.936;7.184;2023-04-25T14:35:16;12.00;1.00
46608;DHT22;32330;51.936;7.184;2023-04-25T14:37:43;12.70;1.00
46608;DHT22;32330;51.936;7.184;2023-04-25T14:40:10;12.60;1.00
46608;DHT22;32330;51.936;7.184;2023-04-25T14:42:39;12.00;1.00
46608;DHT22;32330;51.936;7.184;2023-04-25T14:45:07;11.90;1.00
46608;DHT22;32330;51.936;7.184;2023-04-25T14:47:36;12.50;1.00
46608;DHT22;32330;51.936;7.184;2023-04-25T14:50:04;12.60;1.00
46608;DHT22;32330;51.936;7.184;2023-04-25T14:52:31;12.40;1.00
46608;DHT22;32330;51.936;7.184;2023-04-25T14:54:58;12.40;1.00
46608;DHT22;32330;51.936;7.184;2023-04-25T14:57:26;11.90;1.00
46608;DHT22;32330;51.936;7.184;2023-04-25T14:59:52;12.30;1.00
46608;DHT22;32330;51.936;7.184;2023-04-25T15:02:19;12.00;1.00
46608;DHT22;32330;51.936;7.184;2023-04-25T15:04:48;12.00;1.00
46608;DHT22;32330;51.936;7.184;2023-04-25T15:07:15;11.90;1.00
46608;DHT22;32330;51.936;7.184;2023-04-25T15:09:42;11.80;1.00
46608;DHT22;32330;51.936;7.184;2023-04-25T15:12:09;11.70;1.00
46608;DHT22;32330;51.936;7.184;2023-04-25T15:14:36;12.20;1.00
46608;DHT22;32330;51.936;7.184;2023-04-25T15:17:03;11.60;1.00
46608;DHT22;32330;51.936;7.184;2023-04-25T15:19:30;12.00;1.00
46608;DHT22;32330;51.936;7.184;2023-04-25T15:21:58;12.60;1.00
46608;DHT22;32330;51.936;7.184;2023-04-25T15:24:27;13.00;1.00
46608;DHT22;32330;51.936;7.184;2023-04-25T15:26:54;13.00;1.00
46608;DHT22;32330;51.936;7.184;2023-04-25T15:29:21;13.20;1.00
46608;DHT22;32330;51.936;7.184;2023-04-25T15:31:48;13.00;1.00
46608;DHT22;32330;51.936;7.184;2023-04-25T15:34:15;13.10;1.00
46608;DHT22;32330;51.936;7.184;2023-04-25T15:36:42;13.20;1.00
46608;DHT22;32330;51.936;7.184;2023-04-25T15:39:10;13.10;1.00
46608;DHT22;32330;51.936;7.184;2023-04-25T15:41:37;13.40;1.00
46608;DHT22;32330;51.936;7.184;2023-04-25T15:44:04;13.50;1.00
46608;DHT22;32330;51.936;7.184;2023-04-25T15:46:32;13.60;1.00
46608;DHT22;32330;51.936;7.184;2023-04-25T15:48:59;13.50;1.00
46608;DHT22;32330;51.936;7.184;2023-04-25T15:51:26;13.20;1.00
46608;DHT22;32330;51.936;7.184;2023-04-25T15:53:53;13.20;1.00
46608;DHT22;32330;51.936;7.184;2023-04-25T15:56:22;12.90;1.00
46608;DHT22;32330;51.936;7.184;2023-04-25T15:58:49;12.90;1.00
46608;DHT22;32330;51.936;7.184;2023-04-25T16:01:17;12.90;1.00
46608;DHT22;32330;51.936;7.184;2023-04-25T16:03:44;12.80;1.00
46608;DHT22;32330;51.936;7.184;2023-04-25T16:06:11;12.90;1.00
46608;DHT22;32330;51.936;7.184;2023-04-25T16:08:38;13.00;1.00
46608;DHT22;32330;51.936;7.184;2023-04-25T16:11:05;13.10;1.00
46608;DHT22;32330;51.936;7.184;2023-04-25T16:13:39;12.90;1.00
46608;DHT22;32330;51.936;7.184;2023-04-25T16:16:22;12.60;1.00
46608;DHT22;32330;51.936;7.184;2023-04-25T16:18:49;12.80;1.00
46608;DHT22;32330;51.936;7.184;2023-04-25T16:21:16;12.30;1.00
46608;DHT22;32330;51.936;7.184;2023-04-25T16:23:43;11.70;1.00
46608;DHT22;32330;51.936;7.184;2023-04-25T16:26:10;11.60;1.00
46608;DHT22;32330;51.936;7.184;2023-04-25T16:28:38;11.50;1.00
46608;DHT22;32330;51.936;7.184;2023-04-25T16:31:05;11.40;1.00
46608;DHT22;32330;51.936;7.184;2023-04-25T16:33:33;11.80;1.00
46608;DHT22;32330;51.936;7.184;2023-04-25T16:36:00;11.70;1.00
46608;DHT22;32330;51.936;7.184;2023-04-25T16:38:27;11.80;1.00
46608;DHT22;32330;51.936;7.184;2023-04-25T16:40:54;12.00;1.00
46608;DHT22;32330;51.936;7.184;2023-04-25T16:43:21;12.00;1.00
46608;DHT22;32330;51.936;7.184;2023-04-25T16:45:49;12.30;1.00
46608;DHT22;32330;51.936;7.184;2023-04-25T16:48:16;12.30;1.00
46608;DHT22;32330;51.936;7.184;2023-04-25T16:50:45;12.10;1.00
46608;DHT22;32330;51.936;7.184;2023-04-25T16:53:12;12.20;1.00
46608;DHT22;32330;51.936;7.184;2023-04-25T16:55:39;12.00;1.00
46608;DHT22;32330;51.936;7.184;2023-04-25T16:58:06;11.60;1.00
46608;DHT22;32330;51.936;7.184;2023-04-25T17:00:36;11.70;1.00
46608;DHT22;32330;51.936;7.184;2023-04-25T17:03:04;11.70;1.00
46608;DHT22;32330;51.936;7.184;2023-04-25T17:05:32;11.60;1.00
46608;DHT22;32330;51.936;7.184;2023-04-25T17:07:59;11.30;1.00
46608;DHT22;32330;51.936;7.184;2023-04-25T17:10:26;11.10;1.00
46608;DHT22;32330;51.936;7.184;2023-04-25T17:12:54;11.10;1.00
46608;DHT22;32330;51.936;7.184;2023-04-25T17:15:21;10.60;1.00
46608;DHT22;32330;51.936;7.184;2023-04-25T17:17:49;10.80;1.00
46608;DHT22;32330;51.936;7.184;2023-04-25T17:20:17;10.60;1.00
46608;DHT22;32330;51.936;7.184;2023-04-25T17:22:44;10.70;1.00
46608;DHT22;32330;51.936;7.184;2023-04-25T17:25:12;10.70;1.00
46608;DHT22;32330;51.936;7.184;2023-04-25T17:27:39;10.70;1.00
46608;DHT22;32330;51.936;7.184;2023-04-25T17:30:18;10.60;1.00
46608;DHT22;32330;51.936;7.184;2023-04-25T17:32:45;10.60;1.00
46608;DHT22;32330;51.936;7.184;2023-04-25T17:35:12;10.60;1.00
46608;DHT22;32330;51.936;7.184;2023-04-25T17:37:41;10.50;1.00
46608;DHT22;32330;51.936;7.184;2023-04-25T17:40:10;10.40;1.00
46608;DHT22;32330;51.936;7.184;2023-04-25T17:42:39;10.40;1.00
46608;DHT22;32330;51.936;7.184;2023-04-25T17:45:07;10.50;1.00
46608;DHT22;32330;51.936;7.184;2023-04-25T17:47:36;10.30;1.00
46608;DHT22;32330;51.936;7.184;2023-04-25T17:50:04;10.30;1.00
46608;DHT22;32330;51.936;7.184;2023-04-25T17:52:31;10.00;1.00
46608;DHT22;32330;51.936;7.184;2023-04-25T17:54:59;10.00;1.00
46608;DHT22;32330;51.936;7.184;2023-04-25T17:57:26;9.90;1.00
46608;DHT22;32330;51.936;7.184;2023-04-25T17:59:54;9.90;1.00
46608;DHT22;32330;51.936;7.184;2023-04-25T18:02:22;9.70;1.00
46608;DHT22;32330;51.936;7.184;2023-04-25T18:04:49;9.60;1.00
46608;DHT22;32330;51.936;7.184;2023-04-25T18:07:17;9.60;1.00
46608;DHT22;32330;51.936;7.184;2023-04-25T18:09:43;9.60;1.00
46608;DHT22;32330;51.936;7.184;2023-04-25T18:12:12;9.50;1.00
46608;DHT22;32330;51.936;7.184;2023-04-25T18:14:40;9.30;1.00
46608;DHT22;32330;51.936;7.184;2023-04-25T18:17:07;9.40;1.00
46608;DHT22;32330;51.936;7.184;2023-04-25T18:19:34;9.40;1.00
46608;DHT22;32330;51.936;7.184;2023-04-25T18:22:01;9.20;1.00
46608;DHT22;32330;51.936;7.184;2023-04-25T18:24:29;9.20;1.00
46608;DHT22;32330;51.936;7.184;2023-04-25T18:26:56;9.20;1.00
46608;DHT22;32330;51.936;7.184;2023-04-25T18:29:27;9.20;1.00
46608;DHT22;32330;51.936;7.184;2023-04-25T18:31:54;9.10;1.00
46608;DHT22;32330;51.936;7.184;2023-04-25T18:34:21;9.00;1.00
46608;DHT22;32330;51.936;7.184;2023-04-25T18:36:49;9.00;1.00
46608;DHT22;32330;51.936;7.184;2023-04-25T18:39:17;9.00;1.00
46608;DHT22;32330;51.936;7.184;2023-04-25T18:41:45;9.00;1.00
46608;DHT22;32330;51.936;7.184;2023-04-25T18:44:12;9.00;1.00
46608;DHT22;32330;51.936;7.184;2023-04-25T18:46:40;9.00;1.00
46608;DHT22;32330;51.936;7.184;2023-04-25T18:49:10;8.60;1.00
46608;DHT22;32330;51.936;7.184;2023-04-25T18:51:38;8.60;1.00
46608;DHT22;32330;51.936;7.184;2023-04-25T18:54:06;8.70;1.00
46608;DHT22;32330;51.936;7.184;2023-04-25T19:11:13;8.10;1.00
46608;DHT22;32330;51.936;7.184;2023-04-25T19:13:40;8.00;1.00
46608;DHT22;32330;51.936;7.184;2023-04-25T19:16:07;8.00;1.00
46608;DHT22;32330;51.936;7.184;2023-04-25T19:18:34;7.90;1.00
46608;DHT22;32330;51.936;7.184;2023-04-25T19:21:01;7.90;1.00
46608;DHT22;32330;51.936;7.184;2023-04-25T19:23:30;7.90;1.00
46608;DHT22;32330;51.936;7.184;2023-04-25T19:25:57;7.80;1.00
46608;DHT22;32330;51.936;7.184;2023-04-25T19:28:26;7.80;1.00
46608;DHT22;32330;51.936;7.184;2023-04-25T19:30:54;7.80;1.00
46608;DHT22;32330;51.936;7.184;2023-04-25T19:33:21;7.80;1.00
46608;DHT22;32330;51.936;7.184;2023-04-25T19:35:48;7.70;99.90
46608;DHT22;32330;51.936;7.184;2023-04-25T19:38:15;7.70;99.90
46608;DHT22;32330;51.936;7.184;2023-04-25T19:40:44;7.70;99.90
46608;DHT22;32330;51.936;7.184;2023-04-25T19:43:11;7.70;99.90
46608;DHT22;32330;51.936;7.184;2023-04-25T19:45:40;7.60;99.90
46608;DHT22;32330;51.936;7.184;2023-04-25T19:48:07;7.60;99.90
46608;DHT22;32330;51.936;7.184;2023-04-25T19:50:34;7.50;99.90
46608;DHT22;32330;51.936;7.184;2023-04-25T19:53:02;7.60;99.90
46608;DHT22;32330;51.936;7.184;2023-04-25T19:55:29;7.40;99.90
46608;DHT22;32330;51.936;7.184;2023-04-25T19:57:56;7.40;99.90
46608;DHT22;32330;51.936;7.184;2023-04-25T20:00:23;7.40;99.90
46608;DHT22;32330;51.936;7.184;2023-04-25T20:02:52;7.30;99.90
46608;DHT22;32330;51.936;7.184;2023-04-25T20:05:20;7.30;99.90
46608;DHT22;32330;51.936;7.184;2023-04-25T20:07:48;7.20;99.90
46608;DHT22;32330;51.936;7.184;2023-04-25T20:10:15;7.10;99.90
46608;DHT22;32330;51.936;7.184;2023-04-25T20:12:43;7.10;99.90
46608;DHT22;32330;51.936;7.184;2023-04-25T20:15:12;7.10;99.90
46608;DHT22;32330;51.936;7.184;2023-04-25T20:17:39;7.00;99.90
46608;DHT22;32330;51.936;7.184;2023-04-25T20:20:09;7.00;99.90
46608;DHT22;32330;51.936;7.184;2023-04-25T20:22:37;6.90;99.90
46608;DHT22;32330;51.936;7.184;2023-04-25T20:25:06;6.90;99.90
46608;DHT22;32330;51.936;7.184;2023-04-25T20:27:33;6.80;99.90
46608;DHT22;32330;51.936;7.184;2023-04-25T20:30:03;6.80;99.90
46608;DHT22;32330;51.936;7.184;2023-04-25T20:32:33;6.70;99.90
46608;DHT22;32330;51.936;7.184;2023-04-25T20:35:00;6.70;99.90
46608;DHT22;32330;51.936;7.184;2023-04-25T20:37:29;6.60;99.90
46608;DHT22;32330;51.936;7.184;2023-04-25T20:39:57;6.60;99.90
46608;DHT22;32330;51.936;7.184;2023-04-25T20:42:25;6.50;99.90
46608;DHT22;32330;51.936;7.184;2023-04-25T20:44:52;6.50;99.90
46608;DHT22;32330;51.936;7.184;2023-04-25T20:47:19;6.40;99.90
46608;DHT22;32330;51.936;7.184;2023-04-25T20:49:46;6.40;99.90
46608;DHT22;32330;51.936;7.184;2023-04-25T20:52:13;6.30;99.90
46608;DHT22;32330;51.936;7.184;2023-04-25T20:54:43;6.30;99.90
46608;DHT22;32330;51.936;7.184;2023-04-25T20:57:11;6.30;99.90
46608;DHT22;32330;51.936;7.184;2023-04-25T20:59:38;6.20;99.90
